Aeroporto :
LOGIN :

Iscrizione | Disclaimer

   EN    FR    IT 

 










Sommario :    VFR   VFR Marginale   IFR   IFR Intensivo   IFR Molto Intensivo
Visibilità : 
Base nubi : 
>= 8 km
>= 3000ft
5 / 8 km
1000 / 3000 ft
1500m / 5 km
500 / 1000 ft
800 / 1500m
200 / 500 ft
< 800m
< 200 ft
Simboli :   Temporali  Nebbia  Neve Forte  Precipitazioni Forti  Vento > 20 kt
SIGMETs :   Varie  Temporali  Ghiacco  Turbolenza  Onda orograficha  Ceneri Vulcaniche






- Altitudine del aeroporto : 364 ft


LFAQ - Albert Bray

ULTIMO METAR :
  • 291830Z AUTO 19007KT 7000 BKN019 OVC040 02/01 Q1026

METARs OBSOLETI :
  • 291800Z AUTO 21010KT 8000 BKN012 OVC019 03/01 Q1026 BECMG OVC017
  • 291730Z AUTO 22010KT 9999 SCT015 OVC022 03/01 Q1026 NOSIG
  • 291700Z AUTO 21009KT 9999 OVC023 03/01 Q1026 NOSIG
  • 291630Z AUTO 21007KT 9999 OVC021 03/01 Q1026 NOSIG
  • 291600Z AUTO 21008KT 9999 OVC021 03/01 Q1026 NOSIG

TAF TAF LFAQ
Valido dal 29 a 15 ore il 30 a 00 ore UTC


291400Z 2915/2924 21007KT 9999 OVC017
BECMG 2920/2922 OVC007
TEMPO 2922/2924 2000 DZRA BR OVC002



MetMap, La meteo Aeronautica in un colpo d'occhio ! - Copyright ORBIFLY Dicembre 2007 - Disclaimer

ORBIFLY MET'MAP TEAM :

Programmazione e sviluppo : Alexandra Zaïnal
Concezione : Baudouin d'Aumeries
Supporto tecnico e logistico : Manuel Goepfert
Aiuto : Marc-Olivier Méhu
Aiuto per la traduzione : Arnaldo La Scala




FONTI E CREDITI :

   NOAA